Terminal Aerodrome Forecast
Issued by NWS Charleston, WV

Current Version | Previous Version | Text Only | Print | Product List | Glossary Off
Versions: 1 2 3 4 5 6 7 8 9 10 11 12 13 14 15 16 17 18 19 20 21 22 23 24 25 26 27 28 29

000
FTUS41 KRLX 040538
TAFCRW
TAF
KCRW 040538Z 0406/0506 19005KT 5SM BR BKN020
     FM040800 00000KT 3SM BR OVC010
     FM040900 00000KT 2SM BR OVC003
     FM041300 VRB03KT 5SM BR BKN010
     FM041500 29003KT P6SM BKN015
     FM041900 29004KT P6SM BKN035
     FM050300 00000KT 6SM BR SCT035=

USA.gov is the U.S. government's official web portal to all federal, state and local government web resources and services.